Time;durP1;ratioP1;P1;durP2;ratioP2;P2;SDS_P1;SDS_P2;PMS_P1;PMS_P2;Temp;Humidity;BMP_temperature;BMP_pressure;BME280_temperature;BME280_humidity;BME280_pressure;Samples;Min_cycle;Max_cycle;Signal;HPM_P1;HPM_P2
2023/02/21 02:15:56;;;;;;;9.88;6.40;;;10.80;99.90;;;;;;4953857;28;20039;-72
2023/02/21 02:18:48;;;;;;;8.13;6.07;;;10.80;99.90;;;;;;4955108;28;20031;-71
2023/02/21 02:21:48;;;;;;;10.25;6.65;;;10.80;99.90;;;;;;4953496;28;20110;-72
2023/02/21 02:24:44;;;;;;;8.23;6.05;;;10.80;99.90;;;;;;4962324;28;20035;-71
2023/02/21 02:27:31;;;;;;;9.35;6.45;;;10.90;99.90;;;;;;4954738;28;20393;-72
2023/02/21 02:30:18;;;;;;;9.13;6.88;;;10.80;99.90;;;;;;4970791;28;20197;-72
2023/02/21 02:33:08;;;;;;;11.88;6.88;;;10.90;99.90;;;;;;4967692;28;20414;-72
2023/02/21 02:35:48;;;;;;;10.02;6.80;;;10.90;99.90;;;;;;4966081;28;20063;-70
2023/02/21 02:38:38;;;;;;;10.65;7.20;;;10.90;99.90;;;;;;4971706;28;20178;-70
2023/02/21 02:41:29;;;;;;;7.53;5.45;;;10.90;99.90;;;;;;4957133;28;20094;-70
2023/02/21 02:44:05;;;;;;;9.20;6.55;;;11.00;99.90;;;;;;4957571;28;20074;-70
2023/02/21 02:46:34;;;;;;;8.82;6.63;;;11.00;99.90;;;;;;4969231;28;20043;-69
2023/02/21 02:49:13;;;;;;;10.43;7.57;;;11.00;99.90;;;;;;4958683;28;20027;-71
2023/02/21 02:51:39;;;;;;;9.23;6.35;;;11.10;99.90;;;;;;4966779;28;20018;-70
2023/02/21 02:54:05;;;;;;;9.23;6.40;;;11.10;99.90;;;;;;4970117;28;20062;-71
2023/02/21 02:56:32;;;;;;;9.38;6.63;;;11.10;99.90;;;;;;4968588;28;20023;-70
2023/02/21 02:59:04;;;;;;;11.05;7.05;;;11.10;99.90;;;;;;4959603;28;20035;-71
2023/02/21 03:01:48;;;;;;;9.68;6.40;;;11.10;99.90;;;;;;4965350;28;20041;-71
2023/02/21 03:04:32;;;;;;;10.13;6.97;;;11.10;99.90;;;;;;4976006;28;20410;-71
2023/02/21 03:07:51;;;;;;;13.05;7.97;;;11.10;99.90;;;;;;4966999;28;20095;-70
2023/02/21 03:10:26;;;;;;;9.52;6.22;;;11.20;99.90;;;;;;4887483;29;20029;-70
2023/02/21 03:13:05;;;;;;;9.30;7.35;;;11.20;99.90;;;;;;4896247;29;20036;-71
2023/02/21 03:16:03;;;;;;;9.93;7.47;;;11.20;99.90;;;;;;4936489;28;20238;-72
2023/02/21 03:18:37;;;;;;;9.80;7.53;;;11.20;99.90;;;;;;4969456;28;20046;-73
2023/02/21 03:21:38;;;;;;;11.15;7.53;;;11.20;99.90;;;;;;4956908;28;20050;-72
2023/02/21 03:24:07;;;;;;;11.18;7.55;;;11.20;99.90;;;;;;4947683;28;20050;-72
2023/02/21 03:26:36;;;;;;;11.10;8.15;;;11.30;99.90;;;;;;4965773;28;20035;-72
2023/02/21 03:29:03;;;;;;;11.73;7.60;;;11.20;99.90;;;;;;4955461;28;20050;-73
2023/02/21 03:31:39;;;;;;;10.10;7.18;;;11.30;99.90;;;;;;4959950;28;20027;-71
2023/02/21 03:34:04;;;;;;;8.60;6.60;;;11.20;99.90;;;;;;4974659;28;20039;-72
2023/02/21 03:36:31;;;;;;;9.95;7.30;;;11.30;99.90;;;;;;4968983;28;20029;-72
2023/02/21 03:38:57;;;;;;;10.88;7.18;;;11.20;99.90;;;;;;4959724;28;20039;-71
2023/02/21 03:41:22;;;;;;;11.23;7.55;;;11.30;99.90;;;;;;4963654;28;20109;-71
2023/02/21 03:43:48;;;;;;;9.15;6.65;;;11.30;99.90;;;;;;4959766;28;20031;-72
2023/02/21 03:46:13;;;;;;;9.70;6.93;;;11.30;99.90;;;;;;4956609;28;20035;-72
2023/02/21 03:48:39;;;;;;;9.32;7.18;;;11.30;99.90;;;;;;4973242;28;20482;-71
2023/02/21 03:51:05;;;;;;;9.40;7.32;;;11.30;99.90;;;;;;4970758;28;20058;-70
2023/02/21 03:53:30;;;;;;;9.55;6.78;;;11.30;99.90;;;;;;4966276;28;20126;-72
2023/02/21 03:55:56;;;;;;;9.30;6.97;;;11.30;99.90;;;;;;4956069;28;20027;-72
2023/02/21 03:58:22;;;;;;;10.18;7.32;;;11.30;99.90;;;;;;4969104;28;20090;-72
2023/02/21 04:00:48;;;;;;;11.75;7.22;;;11.30;99.90;;;;;;4955871;28;20035;-73
2023/02/21 04:03:14;;;;;;;10.05;7.03;;;11.30;99.90;;;;;;4958122;28;20039;-73
2023/02/21 04:05:39;;;;;;;9.85;6.72;;;11.30;99.90;;;;;;4955344;28;20072;-73
2023/02/21 04:08:05;;;;;;;10.05;7.55;;;11.30;99.90;;;;;;4955450;28;20035;-71
2023/02/21 04:10:30;;;;;;;10.63;7.07;;;11.30;99.90;;;;;;4968206;28;20033;-74
2023/02/21 04:12:56;;;;;;;11.02;7.45;;;11.30;99.90;;;;;;4961063;28;20031;-74
2023/02/21 04:15:23;;;;;;;9.80;7.00;;;11.30;99.90;;;;;;4955388;28;20031;-73
2023/02/21 04:17:48;;;;;;;9.82;7.47;;;11.30;99.90;;;;;;4968860;28;20035;-74
2023/02/21 04:20:14;;;;;;;9.20;6.72;;;11.40;99.90;;;;;;4973383;28;20025;-73
2023/02/21 04:22:40;;;;;;;8.45;6.43;;;11.30;99.90;;;;;;4955871;28;20125;-72
2023/02/21 04:25:07;;;;;;;10.55;6.82;;;11.40;99.90;;;;;;4955412;28;20467;-73
2023/02/21 04:27:33;;;;;;;11.43;7.57;;;11.40;99.90;;;;;;4969821;28;20023;-72
2023/02/21 04:29:59;;;;;;;10.35;8.05;;;11.40;99.90;;;;;;4963240;28;20113;-73
2023/02/21 04:32:25;;;;;;;10.60;7.18;;;11.50;99.90;;;;;;4958230;28;20459;-72
2023/02/21 04:34:51;;;;;;;9.40;7.18;;;11.50;99.90;;;;;;4954780;28;20034;-73
2023/02/21 04:37:17;;;;;;;12.13;7.72;;;11.50;99.90;;;;;;4965149;28;20038;-72
2023/02/21 04:39:43;;;;;;;10.40;7.47;;;11.50;99.90;;;;;;4960235;28;20047;-73
2023/02/21 04:42:09;;;;;;;10.63;7.35;;;11.50;99.90;;;;;;4964252;28;20273;-73
2023/02/21 04:44:35;;;;;;;10.90;7.40;;;11.50;99.90;;;;;;4960506;28;20050;-73
2023/02/21 04:47:01;;;;;;;8.85;6.95;;;11.40;99.90;;;;;;4963885;28;20078;-73
2023/02/21 04:49:27;;;;;;;12.05;8.00;;;11.50;99.90;;;;;;4960410;28;20515;-72
2023/02/21 04:51:55;;;;;;;9.50;6.03;;;11.50;99.90;;;;;;4968907;28;20375;-71
2023/02/21 04:54:21;;;;;;;10.13;7.03;;;11.40;99.90;;;;;;4955531;28;20109;-72
2023/02/21 04:56:46;;;;;;;11.40;7.65;;;11.50;99.90;;;;;;4962590;28;20122;-73
2023/02/21 04:59:12;;;;;;;12.32;8.52;;;11.50;99.90;;;;;;4950801;28;20055;-72
2023/02/21 05:01:38;;;;;;;11.93;7.55;;;11.50;99.90;;;;;;4963154;28;20429;-72
2023/02/21 05:04:03;;;;;;;10.65;7.45;;;11.50;99.90;;;;;;4954591;28;20042;-72
2023/02/21 05:06:30;;;;;;;11.27;6.82;;;11.40;99.90;;;;;;4965356;28;20031;-72
2023/02/21 05:08:57;;;;;;;11.18;7.50;;;11.50;99.90;;;;;;4954203;28;20106;-72
2023/02/21 05:11:23;;;;;;;11.15;7.57;;;11.40;99.90;;;;;;4955349;28;20035;-71
2023/02/21 05:13:50;;;;;;;10.75;7.68;;;11.40;99.90;;;;;;4955083;28;20034;-72
2023/02/21 05:16:17;;;;;;;11.00;7.53;;;11.30;99.90;;;;;;4962312;28;20106;-72
2023/02/21 05:18:44;;;;;;;11.30;7.97;;;11.30;99.90;;;;;;4961819;28;20070;-72
2023/02/21 05:21:10;;;;;;;11.85;8.32;;;11.30;99.90;;;;;;4964394;28;20058;-72
2023/02/21 05:23:38;;;;;;;13.73;8.57;;;11.30;99.90;;;;;;4961825;28;20074;-72
2023/02/21 05:26:10;;;;;;;11.05;7.20;;;11.30;99.90;;;;;;4957344;28;20117;-73
2023/02/21 05:28:37;;;;;;;13.13;8.40;;;11.30;99.90;;;;;;4947819;28;20487;-73
2023/02/21 05:31:03;;;;;;;11.52;7.65;;;11.30;99.90;;;;;;4971984;28;20414;-72
2023/02/21 05:33:29;;;;;;;10.95;7.53;;;11.30;99.90;;;;;;4973215;28;20093;-72
2023/02/21 05:35:55;;;;;;;11.07;7.40;;;11.30;99.90;;;;;;4952060;28;20031;-72
2023/02/21 05:38:23;;;;;;;12.98;8.90;;;11.20;99.90;;;;;;4957927;28;20078;-73
2023/02/21 05:40:48;;;;;;;12.35;7.78;;;11.20;99.90;;;;;;4956283;28;20048;-71
2023/02/21 05:43:14;;;;;;;11.50;8.07;;;11.20;99.90;;;;;;4953850;28;20054;-73
2023/02/21 05:45:40;;;;;;;9.40;7.13;;;11.20;99.90;;;;;;4955100;28;20031;-72
2023/02/21 05:48:06;;;;;;;10.13;7.50;;;11.30;99.90;;;;;;4972392;28;20027;-72
2023/02/21 05:50:32;;;;;;;10.98;8.13;;;11.20;99.90;;;;;;4961630;28;20061;-73
2023/02/21 05:52:58;;;;;;;10.85;7.45;;;11.20;99.90;;;;;;4960956;28;20367;-71
2023/02/21 05:55:25;;;;;;;12.10;7.93;;;11.20;99.90;;;;;;4961978;28;20082;-72
2023/02/21 05:57:52;;;;;;;11.68;8.50;;;11.20;99.90;;;;;;4955035;28;20045;-72
2023/02/21 06:00:28;;;;;;;11.48;8.13;;;11.20;99.90;;;;;;4963279;28;20027;-74
2023/02/21 06:02:56;;;;;;;11.00;7.82;;;11.20;99.90;;;;;;4963562;28;20031;-71
2023/02/21 06:05:22;;;;;;;10.95;8.15;;;11.20;99.90;;;;;;4960214;28;20031;-72
2023/02/21 06:07:48;;;;;;;11.20;8.02;;;11.20;99.90;;;;;;4967182;28;20078;-73
2023/02/21 06:10:15;;;;;;;9.02;6.55;;;11.20;99.90;;;;;;4976866;28;20131;-73
2023/02/21 06:12:41;;;;;;;9.68;6.65;;;11.20;99.90;;;;;;4963905;28;20031;-74
2023/02/21 06:15:07;;;;;;;10.77;7.07;;;11.20;99.90;;;;;;4959494;28;20588;-73
2023/02/21 06:17:35;;;;;;;10.00;7.07;;;11.20;99.90;;;;;;4967697;28;20065;-73
2023/02/21 06:20:02;;;;;;;9.82;6.70;;;11.20;99.90;;;;;;4959876;28;20034;-72
2023/02/21 06:22:28;;;;;;;9.48;6.82;;;11.10;99.90;;;;;;4965393;28;20051;-67
2023/02/21 06:24:54;;;;;;;10.73;7.20;;;11.20;99.90;;;;;;4976727;28;20113;-68
2023/02/21 06:27:19;;;;;;;12.27;7.47;;;11.20;99.90;;;;;;4966658;28;20027;-68
2023/02/21 06:29:45;;;;;;;10.35;6.65;;;11.10;99.90;;;;;;4958450;28;20042;-69
2023/02/21 06:32:10;;;;;;;10.60;6.38;;;11.10;99.90;;;;;;4965895;28;20105;-70
2023/02/21 06:34:36;;;;;;;9.00;7.32;;;11.20;99.90;;;;;;4976168;28;20045;-70
2023/02/21 06:37:01;;;;;;;11.68;6.60;;;11.10;99.90;;;;;;4960873;28;20440;-73
2023/02/21 06:39:27;;;;;;;10.25;7.10;;;11.20;99.90;;;;;;4941662;28;20039;-69
2023/02/21 06:41:53;;;;;;;9.05;6.40;;;11.10;99.90;;;;;;4958266;28;20077;-73
2023/02/21 06:44:19;;;;;;;10.45;7.03;;;11.20;99.90;;;;;;4968571;28;20110;-72
2023/02/21 06:46:45;;;;;;;8.98;6.57;;;11.10;99.90;;;;;;4962436;28;20054;-73
2023/02/21 06:49:11;;;;;;;8.98;6.13;;;11.10;99.90;;;;;;4951591;28;20049;-72
2023/02/21 06:51:39;;;;;;;9.32;6.95;;;11.10;99.90;;;;;;4966419;28;20106;-74
2023/02/21 06:54:06;;;;;;;9.45;7.00;;;11.20;99.90;;;;;;4972121;28;20086;-73
2023/02/21 06:56:32;;;;;;;9.02;6.60;;;11.20;99.90;;;;;;4960850;28;20030;-73
2023/02/21 06:58:58;;;;;;;10.40;7.68;;;11.20;99.90;;;;;;4976087;28;20077;-74
2023/02/21 07:01:28;;;;;;;9.75;6.82;;;11.20;99.90;;;;;;4962568;28;20046;-73
2023/02/21 07:03:55;;;;;;;8.75;6.30;;;11.20;99.90;;;;;;4956588;28;20105;-70
2023/02/21 07:06:21;;;;;;;8.48;5.53;;;11.30;99.90;;;;;;4958687;28;20474;-74
2023/02/21 07:08:47;;;;;;;7.68;5.32;;;11.20;99.90;;;;;;4950970;28;20059;-74
2023/02/21 07:11:14;;;;;;;7.97;5.22;;;11.30;99.90;;;;;;4956847;28;20546;-72
2023/02/21 07:13:40;;;;;;;8.90;5.10;;;11.30;99.90;;;;;;4973324;28;20027;-72
2023/02/21 07:16:06;;;;;;;7.63;5.80;;;11.30;99.90;;;;;;4959395;28;20031;-74
2023/02/21 07:18:33;;;;;;;7.45;5.20;;;11.30;99.90;;;;;;4956222;28;20039;-73
2023/02/21 07:20:59;;;;;;;6.82;4.95;;;11.30;99.90;;;;;;4957263;28;20031;-72
2023/02/21 07:23:25;;;;;;;6.95;4.15;;;11.30;99.90;;;;;;4963158;28;20030;-71
2023/02/21 07:25:51;;;;;;;5.38;3.72;;;11.30;99.90;;;;;;4958733;28;20035;-74
2023/02/21 07:28:17;;;;;;;5.65;4.10;;;11.20;99.90;;;;;;4963598;28;20117;-73
2023/02/21 07:30:42;;;;;;;5.75;3.97;;;11.20;99.90;;;;;;4966391;28;20487;-74
2023/02/21 07:33:08;;;;;;;5.68;3.85;;;11.10;99.90;;;;;;4959367;28;20046;-73
2023/02/21 07:35:34;;;;;;;5.72;3.90;;;11.20;99.90;;;;;;4967196;28;20558;-74
2023/02/21 07:37:59;;;;;;;5.88;3.97;;;11.20;99.90;;;;;;4960142;28;20035;-74
2023/02/21 07:40:25;;;;;;;7.25;4.20;;;11.20;99.90;;;;;;4938620;29;20066;-73
2023/02/21 07:42:50;;;;;;;6.03;4.13;;;11.20;99.90;;;;;;4956856;28;20081;-72
2023/02/21 07:45:16;;;;;;;6.05;4.30;;;11.20;99.90;;;;;;4961467;28;20039;-74
2023/02/21 07:47:44;;;;;;;5.75;3.63;;;11.20;99.90;;;;;;4970084;28;20026;-73
2023/02/21 07:50:10;;;;;;;5.50;4.00;;;11.30;99.90;;;;;;4965084;28;20382;-74
2023/02/21 07:52:36;;;;;;;4.97;2.88;;;11.30;99.90;;;;;;4950711;28;20043;-73
2023/02/21 07:55:01;;;;;;;5.00;3.05;;;11.30;99.90;;;;;;4957375;28;20027;-67
2023/02/21 07:57:27;;;;;;;4.22;2.70;;;11.30;99.90;;;;;;4960275;28;20022;-67
2023/02/21 07:59:52;;;;;;;5.05;3.10;;;11.30;99.90;;;;;;4964737;28;20035;-67
2023/02/21 08:02:18;;;;;;;4.50;2.20;;;11.30;99.90;;;;;;4967369;28;20106;-66
2023/02/21 08:04:44;;;;;;;15.38;2.88;;;11.30;99.90;;;;;;4961667;28;20078;-69
2023/02/21 08:07:09;;;;;;;4.57;2.65;;;11.30;99.90;;;;;;4972320;28;20027;-67
2023/02/21 08:09:36;;;;;;;4.47;2.88;;;11.30;99.90;;;;;;4965578;28;20053;-67
2023/02/21 08:12:02;;;;;;;3.92;2.70;;;11.40;99.90;;;;;;4960595;28;20023;-68
2023/02/21 08:14:28;;;;;;;4.60;2.80;;;11.30;99.90;;;;;;4958471;28;20026;-67
2023/02/21 08:16:53;;;;;;;4.40;2.70;;;11.40;99.90;;;;;;4958687;28;20430;-67
2023/02/21 08:19:19;;;;;;;4.57;3.22;;;11.40;99.90;;;;;;4964176;28;20131;-67
2023/02/21 08:21:49;;;;;;;3.72;2.30;;;11.40;99.90;;;;;;4956076;28;20109;-67
2023/02/21 08:24:15;;;;;;;4.00;2.28;;;11.40;99.90;;;;;;4956603;28;20046;-67
2023/02/21 08:26:44;;;;;;;4.57;2.10;;;11.40;99.90;;;;;;4962604;28;20532;-67
2023/02/21 08:29:11;;;;;;;3.55;2.45;;;11.50;99.90;;;;;;4943714;28;20039;-68
2023/02/21 08:31:39;;;;;;;3.10;1.83;;;11.50;99.90;;;;;;4958718;28;20043;-68
2023/02/21 08:34:05;;;;;;;3.05;2.05;;;11.60;99.90;;;;;;4955395;28;20027;-68
2023/02/21 08:36:32;;;;;;;2.72;1.60;;;11.60;99.90;;;;;;4967060;28;20217;-68
2023/02/21 08:38:58;;;;;;;3.22;2.00;;;11.70;99.90;;;;;;4958286;28;20070;-68
2023/02/21 08:41:24;;;;;;;2.88;1.55;;;11.70;99.90;;;;;;4957688;28;20495;-66
2023/02/21 08:43:50;;;;;;;3.33;1.50;;;11.70;99.90;;;;;;4960848;28;20031;-66
2023/02/21 08:46:16;;;;;;;2.83;1.13;;;11.70;99.90;;;;;;4967806;28;20058;-67
2023/02/21 08:48:41;;;;;;;2.67;1.80;;;11.80;99.90;;;;;;4951694;28;20519;-67
2023/02/21 08:51:07;;;;;;;2.63;1.83;;;11.80;99.90;;;;;;4963880;28;20022;-67
2023/02/21 08:53:33;;;;;;;5.20;2.13;;;11.80;99.90;;;;;;4956545;28;20055;-67
2023/02/21 08:55:58;;;;;;;2.90;1.50;;;11.80;99.90;;;;;;4972552;28;20038;-67
2023/02/21 08:58:24;;;;;;;1.80;1.35;;;11.90;99.90;;;;;;4962884;28;20042;-67
2023/02/21 09:00:50;;;;;;;2.03;1.30;;;11.90;99.90;;;;;;4967219;28;20027;-68
2023/02/21 09:03:15;;;;;;;3.33;1.92;;;11.90;99.90;;;;;;4955115;28;20051;-68
2023/02/21 09:05:41;;;;;;;4.22;1.90;;;12.00;99.90;;;;;;4966000;28;20497;-67
2023/02/21 09:08:09;;;;;;;3.60;1.52;;;12.10;99.90;;;;;;4963296;28;20066;-68
2023/02/21 09:10:35;;;;;;;3.83;1.73;;;12.20;99.90;;;;;;4960978;28;20031;-68
2023/02/21 09:13:02;;;;;;;4.70;2.08;;;12.20;99.90;;;;;;4940341;28;20502;-68
2023/02/21 09:15:27;;;;;;;3.88;1.52;;;12.20;99.90;;;;;;4965266;28;20027;-67
2023/02/21 09:17:54;;;;;;;2.10;1.33;;;12.20;99.90;;;;;;4951246;28;20041;-67
2023/02/21 09:20:23;;;;;;;3.83;1.50;;;12.20;99.90;;;;;;4966108;28;20035;-68
2023/02/21 09:22:49;;;;;;;2.83;1.77;;;12.20;99.90;;;;;;4954785;28;20113;-67
2023/02/21 09:25:18;;;;;;;3.85;2.00;;;12.20;99.90;;;;;;4951537;28;20314;-67
2023/02/21 09:27:44;;;;;;;7.75;1.83;;;12.20;99.90;;;;;;4942187;28;20023;-67
2023/02/21 09:30:22;;;;;;;6.15;2.45;;;12.20;99.90;;;;;;4963221;28;20049;-69
2023/02/21 09:32:49;;;;;;;3.25;1.48;;;12.20;99.90;;;;;;4956237;28;20033;-68
2023/02/21 09:35:15;;;;;;;2.78;1.50;;;12.20;99.90;;;;;;4954229;28;20034;-68
2023/02/21 09:37:43;;;;;;;6.65;2.42;;;12.20;99.90;;;;;;4950766;28;20502;-67
2023/02/21 09:40:34;;;;;;;3.92;1.80;;;12.20;99.90;;;;;;4967988;28;20070;-67
2023/02/21 09:43:01;;;;;;;4.47;1.77;;;12.20;99.90;;;;;;4954181;28;20114;-68
2023/02/21 09:45:32;;;;;;;4.47;1.52;;;12.20;99.90;;;;;;4953522;28;20043;-68
2023/02/21 09:48:08;;;;;;;5.85;2.33;;;12.30;99.90;;;;;;4964157;28;20023;-68
2023/02/21 09:50:40;;;;;;;4.43;1.98;;;12.30;99.90;;;;;;4967698;28;20113;-68
2023/02/21 09:53:07;;;;;;;5.05;1.88;;;12.30;99.90;;;;;;4943296;28;20137;-68
2023/02/21 09:55:36;;;;;;;7.13;1.85;;;12.30;99.90;;;;;;4973001;28;20046;-67
2023/02/21 09:58:02;;;;;;;7.18;2.05;;;12.30;99.90;;;;;;4961125;28;20059;-69
2023/02/21 10:00:36;;;;;;;7.47;2.92;;;12.30;99.90;;;;;;4967762;28;20113;-67
2023/02/21 10:03:30;;;;;;;4.75;1.55;;;12.40;99.90;;;;;;4953779;28;20054;-67
2023/02/21 10:06:01;;;;;;;3.80;1.70;;;12.40;99.90;;;;;;4965009;28;20058;-68
2023/02/21 10:08:53;;;;;;;6.45;1.90;;;12.40;99.90;;;;;;4963991;28;20036;-66
2023/02/21 10:11:57;;;;;;;3.55;1.30;;;12.40;99.90;;;;;;4963528;28;20510;-67
2023/02/21 10:14:58;;;;;;;5.90;2.15;;;12.40;99.90;;;;;;4953762;28;20070;-69
2023/02/21 10:17:42;;;;;;;7.25;1.83;;;12.40;99.90;;;;;;4948123;28;20039;-66
2023/02/21 10:20:14;;;;;;;4.55;1.80;;;12.40;99.90;;;;;;4959817;28;20027;-68
2023/02/21 10:22:45;;;;;;;3.97;1.55;;;12.50;99.90;;;;;;4953174;28;20364;-67
2023/02/21 10:25:22;;;;;;;5.03;1.80;;;12.50;99.90;;;;;;4953435;28;20079;-68
2023/02/21 10:27:49;;;;;;;6.50;1.92;;;12.50;99.50;;;;;;4957776;28;20038;-67
2023/02/21 10:30:36;;;;;;;6.15;2.05;;;12.50;99.30;;;;;;4955146;28;20383;-69
2023/02/21 10:33:05;;;;;;;7.30;2.10;;;12.60;99.40;;;;;;4952074;28;20118;-69
2023/02/21 10:35:35;;;;;;;5.85;1.88;;;12.50;99.10;;;;;;4957354;28;20062;-68
2023/02/21 10:38:08;;;;;;;5.53;1.58;;;12.50;99.40;;;;;;4959176;28;20486;-67
2023/02/21 10:40:40;;;;;;;3.75;1.10;;;12.60;99.30;;;;;;4965045;28;21685;-67
2023/02/21 10:43:11;;;;;;;3.30;1.60;;;12.60;99.30;;;;;;4965887;28;20023;-67
2023/02/21 10:46:07;;;;;;;7.75;1.75;;;12.60;99.10;;;;;;4969830;28;20068;-68
2023/02/21 10:48:38;;;;;;;3.53;1.55;;;12.60;99.00;;;;;;4966207;28;20065;-67
2023/02/21 10:51:03;;;;;;;4.93;2.63;;;12.60;98.70;;;;;;4958285;28;20031;-67
2023/02/21 10:53:34;;;;;;;4.93;1.60;;;12.60;98.70;;;;;;4966856;28;20054;-67
2023/02/21 10:56:18;;;;;;;3.30;1.77;;;12.60;98.80;;;;;;4956547;28;20042;-67
2023/02/21 10:59:06;;;;;;;3.65;1.63;;;12.60;98.70;;;;;;4958797;28;20036;-68
2023/02/21 11:01:45;;;;;;;4.05;1.83;;;12.70;98.70;;;;;;4964953;28;20050;-67
2023/02/21 11:04:26;;;;;;;2.70;1.60;;;12.70;98.70;;;;;;4960308;28;20426;-66
2023/02/21 11:07:00;;;;;;;4.88;1.70;;;12.70;98.20;;;;;;4965883;28;20093;-67
2023/02/21 11:09:25;;;;;;;6.05;2.03;;;12.60;98.40;;;;;;4959215;28;20062;-68
2023/02/21 11:12:14;;;;;;;5.47;1.85;;;12.60;98.30;;;;;;4974003;28;20066;-66
2023/02/21 11:14:40;;;;;;;4.03;1.90;;;12.60;98.30;;;;;;4956875;28;20026;-67
2023/02/21 11:17:15;;;;;;;3.63;1.27;;;12.60;98.20;;;;;;4954920;28;20466;-68
2023/02/21 11:19:54;;;;;;;3.92;1.50;;;12.60;98.40;;;;;;4954836;28;20046;-66
2023/02/21 11:22:42;;;;;;;5.00;2.17;;;12.70;98.50;;;;;;4956944;28;20055;-67
2023/02/21 11:25:10;;;;;;;3.38;1.60;;;12.60;98.30;;;;;;4961038;28;20038;-66
2023/02/21 11:27:38;;;;;;;4.03;2.22;;;12.60;98.40;;;;;;4958244;28;20027;-66
2023/02/21 11:30:15;;;;;;;6.03;2.03;;;12.70;98.30;;;;;;4966585;28;20404;-68
2023/02/21 11:32:47;;;;;;;10.02;2.88;;;12.60;98.20;;;;;;4974429;28;20596;-68
2023/02/21 11:35:19;;;;;;;5.95;2.83;;;12.60;98.40;;;;;;4960055;28;20493;-67
2023/02/21 11:37:51;;;;;;;7.28;2.25;;;12.70;98.00;;;;;;4964415;28;20050;-67
2023/02/21 11:40:31;;;;;;;5.90;2.13;;;12.70;97.60;;;;;;4974575;28;20042;-69
2023/02/21 11:43:20;;;;;;;6.45;1.83;;;12.70;97.60;;;;;;4972654;28;20103;-68
2023/02/21 11:45:58;;;;;;;5.38;2.03;;;12.70;97.40;;;;;;4972773;28;20082;-68
2023/02/21 11:48:30;;;;;;;4.72;2.00;;;12.70;97.20;;;;;;4971387;28;20038;-68
2023/02/21 11:51:00;;;;;;;7.78;1.98;;;12.80;97.20;;;;;;4950836;28;20238;-66
2023/02/21 11:53:33;;;;;;;5.53;1.95;;;12.90;97.00;;;;;;4968513;28;20050;-66
2023/02/21 11:56:05;;;;;;;7.35;2.65;;;12.80;96.10;;;;;;4955463;28;20023;-67
2023/02/21 11:58:55;;;;;;;7.30;2.15;;;12.80;96.30;;;;;;4959704;28;20051;-66
2023/02/21 12:02:02;;;;;;;7.82;2.47;;;12.80;96.20;;;;;;4959620;28;20093;-65
2023/02/21 12:04:51;;;;;;;6.50;2.45;;;12.90;95.90;;;;;;4961225;28;20046;-66
2023/02/21 12:07:22;;;;;;;5.95;2.08;;;12.80;95.80;;;;;;4961807;28;20529;-65
2023/02/21 12:09:59;;;;;;;6.18;2.67;;;12.80;95.50;;;;;;4960093;28;20109;-66
2023/02/21 12:12:45;;;;;;;5.95;2.42;;;12.70;95.40;;;;;;4962067;28;20034;-65
2023/02/21 12:15:25;;;;;;;15.40;4.03;;;12.70;94.90;;;;;;4952874;28;20470;-66
2023/02/21 12:17:58;;;;;;;4.13;1.95;;;12.70;95.50;;;;;;4954606;28;20125;-65
2023/02/21 12:20:32;;;;;;;6.28;1.95;;;12.70;95.50;;;;;;4952744;28;20494;-66
2023/02/21 12:23:17;;;;;;;8.27;3.20;;;12.70;95.80;;;;;;4972691;28;20034;-66
2023/02/21 12:26:10;;;;;;;11.88;2.70;;;12.70;95.90;;;;;;4957684;28;21769;-65
2023/02/21 12:29:07;;;;;;;6.78;2.65;;;12.70;95.90;;;;;;4959321;28;20023;-64
2023/02/21 12:31:51;;;;;;;9.40;3.17;;;12.70;95.80;;;;;;4960218;28;20046;-65
2023/02/21 12:34:33;;;;;;;7.90;2.08;;;12.60;95.60;;;;;;4957097;28;20386;-65
2023/02/21 12:37:42;;;;;;;7.47;2.05;;;12.60;95.90;;;;;;4955354;28;20081;-66
2023/02/21 12:40:31;;;;;;;6.80;2.33;;;12.70;96.10;;;;;;4941783;28;20122;-66
2023/02/21 12:43:19;;;;;;;6.97;2.40;;;12.60;95.80;;;;;;4963006;28;20038;-66
2023/02/21 12:45:59;;;;;;;6.75;1.92;;;12.60;95.90;;;;;;4964322;28;20031;-65
2023/02/21 12:48:48;;;;;;;6.05;2.33;;;12.60;95.60;;;;;;4956327;28;20031;-64
2023/02/21 12:51:18;;;;;;;4.43;1.80;;;12.60;95.60;;;;;;4960194;28;20391;-66
2023/02/21 12:53:53;;;;;;;6.97;2.20;;;12.60;95.70;;;;;;4954590;28;20384;-65
2023/02/21 12:56:29;;;;;;;10.50;2.40;;;12.70;95.90;;;;;;4962028;28;20031;-65
2023/02/21 12:59:14;;;;;;;12.02;3.42;;;12.80;96.10;;;;;;4970342;28;20063;-65
2023/02/21 13:01:46;;;;;;;8.95;1.90;;;12.70;95.70;;;;;;4945757;28;20027;-65
2023/02/21 13:04:30;;;;;;;7.38;2.97;;;12.70;95.80;;;;;;4958989;28;20486;-66
2023/02/21 13:07:06;;;;;;;7.65;2.40;;;12.70;95.80;;;;;;4961693;28;20034;-65
2023/02/21 13:09:53;;;;;;;9.18;2.40;;;12.70;95.90;;;;;;4946022;28;20074;-65
2023/02/21 13:12:29;;;;;;;7.03;2.65;;;12.70;95.80;;;;;;4952695;28;20034;-65
2023/02/21 13:15:03;;;;;;;8.70;2.90;;;12.70;95.90;;;;;;4954073;28;21644;-65
2023/02/21 13:17:28;;;;;;;10.68;2.60;;;12.70;95.70;;;;;;4959834;28;20494;-65
2023/02/21 13:20:00;;;;;;;9.20;3.45;;;12.70;95.60;;;;;;4964758;28;20118;-65
2023/02/21 13:26:23;;;;;;;8.75;2.47;;;12.70;95.60;;;;;;4954120;28;20031;-66
2023/02/21 13:28:54;;;;;;;14.48;2.65;;;12.80;95.70;;;;;;4955049;28;20073;-66
2023/02/21 13:31:37;;;;;;;5.28;2.83;;;12.90;95.60;;;;;;4953842;28;20442;-66
2023/02/21 13:34:07;;;;;;;8.80;2.83;;;12.90;95.70;;;;;;4958708;28;20046;-66
2023/02/21 13:36:40;;;;;;;7.88;2.70;;;12.90;95.50;;;;;;4959727;28;20050;-65
2023/02/21 13:39:09;;;;;;;7.45;2.40;;;12.80;95.00;;;;;;4957157;28;20094;-66
2023/02/21 13:41:43;;;;;;;6.10;2.58;;;12.80;95.30;;;;;;4964253;28;20494;-65
2023/02/21 13:44:12;;;;;;;12.30;2.50;;;12.80;95.20;;;;;;4968464;28;20038;-65
2023/02/21 13:46:37;;;;;;;8.30;2.33;;;12.80;95.10;;;;;;4962404;28;20043;-65
2023/02/21 13:49:46;;;;;;;7.60;2.25;;;12.80;95.40;;;;;;4968769;28;20031;-65
2023/02/21 13:52:21;;;;;;;8.70;2.38;;;12.80;95.10;;;;;;4957630;28;20043;-66
2023/02/21 13:55:05;;;;;;;;;;;12.80;95.20;;;;;;4959621;28;20023;-66
2023/02/21 13:57:33;;;;;;;13.48;3.08;;;12.80;95.40;;;;;;4956881;28;20293;-65
2023/02/21 14:00:25;;;;;;;6.53;3.10;;;12.80;95.30;;;;;;4963581;28;20043;-65
2023/02/21 14:03:08;;;;;;;5.53;2.63;;;12.90;95.30;;;;;;4954476;28;20034;-66
2023/02/21 14:05:43;;;;;;;11.48;3.30;;;12.90;95.30;;;;;;4963734;28;20030;-65
2023/02/21 14:08:35;;;;;;;6.13;2.67;;;12.90;95.10;;;;;;4965754;28;20034;-66
2023/02/21 14:11:03;;;;;;;8.68;3.13;;;12.90;95.10;;;;;;4960912;28;20090;-66
2023/02/21 14:13:50;;;;;;;5.20;2.08;;;12.90;95.30;;;;;;4957364;28;20033;-65
2023/02/21 14:16:34;;;;;;;6.93;2.45;;;12.90;95.20;;;;;;4964570;28;20458;-65
2023/02/21 14:19:07;;;;;;;8.68;2.45;;;12.90;95.10;;;;;;4961043;28;20039;-66
2023/02/21 14:21:42;;;;;;;10.30;2.80;;;12.80;95.20;;;;;;4966192;28;20023;-66
2023/02/21 14:24:08;;;;;;;13.38;3.75;;;12.80;95.10;;;;;;4973140;28;20027;-65
2023/02/21 14:26:41;;;;;;;8.13;3.45;;;12.70;94.90;;;;;;4962890;28;20028;-65
2023/02/21 14:29:07;;;;;;;12.15;3.35;;;12.60;94.80;;;;;;4962392;28;20062;-66
2023/02/21 14:31:51;;;;;;;16.98;4.03;;;12.60;94.90;;;;;;4969944;28;20082;-66
2023/02/21 14:34:23;;;;;;;12.55;3.83;;;12.60;94.70;;;;;;4956310;28;20046;-66
2023/02/21 14:36:51;;;;;;;11.82;3.65;;;12.50;94.80;;;;;;4968463;28;20102;-66
2023/02/21 14:39:18;;;;;;;10.10;3.45;;;12.50;94.60;;;;;;4969434;28;20057;-66
2023/02/21 14:41:52;;;;;;;8.23;3.10;;;12.50;94.80;;;;;;4976183;28;20046;-65
2023/02/21 14:44:33;;;;;;;14.25;3.67;;;12.40;94.90;;;;;;4960392;28;20027;-66
2023/02/21 14:47:08;;;;;;;10.88;3.67;;;12.40;94.80;;;;;;4961537;28;20032;-66
2023/02/21 14:49:47;;;;;;;9.10;3.05;;;12.40;94.80;;;;;;4961152;28;20422;-66
2023/02/21 14:52:16;;;;;;;11.35;3.55;;;12.40;95.10;;;;;;4974169;28;20049;-66
2023/02/21 14:55:00;;;;;;;9.38;3.30;;;12.40;94.90;;;;;;4959316;28;20034;-66
2023/02/21 14:57:35;;;;;;;11.07;3.75;;;12.40;94.90;;;;;;4970797;28;20026;-67
2023/02/21 15:00:17;;;;;;;9.80;3.15;;;12.40;94.80;;;;;;4961500;28;20126;-65
2023/02/21 15:02:52;;;;;;;9.07;2.90;;;12.40;94.70;;;;;;4973144;28;20098;-66
2023/02/21 15:05:42;;;;;;;9.52;2.97;;;12.40;94.70;;;;;;4957594;28;20057;-65
2023/02/21 15:08:17;;;;;;;12.07;3.75;;;12.40;94.60;;;;;;4959093;28;20055;-65
2023/02/21 15:10:46;;;;;;;10.35;3.67;;;12.30;94.40;;;;;;4959079;28;20415;-65
2023/02/21 15:13:22;;;;;;;13.45;3.72;;;12.20;94.50;;;;;;4957019;28;20031;-65
2023/02/21 15:16:04;;;;;;;11.15;3.65;;;12.20;94.50;;;;;;4963828;28;20034;-66
2023/02/21 15:18:34;;;;;;;10.57;3.97;;;12.10;94.60;;;;;;4957563;28;20499;-66
2023/02/21 15:21:11;;;;;;;9.40;3.67;;;12.20;94.70;;;;;;4946789;28;20410;-65
2023/02/21 15:23:39;;;;;;;9.63;3.13;;;12.10;94.90;;;;;;4976263;28;20026;-65
2023/02/21 15:26:21;;;;;;;8.68;3.33;;;12.20;94.80;;;;;;4944812;28;20038;-66
2023/02/21 15:29:02;;;;;;;12.25;3.17;;;12.20;94.70;;;;;;4962307;28;20037;-66